createdAt,value
2018-10-18T00:00:06.542Z,63.18
2018-10-18T00:01:13.674Z,63.17
2018-10-18T00:02:20.434Z,63.19
2018-10-18T00:03:27.340Z,63.22
2018-10-18T00:04:33.959Z,63.20
2018-10-18T00:05:40.741Z,63.21
2018-10-18T00:06:47.382Z,63.29
2018-10-18T00:07:54.689Z,63.31
2018-10-18T00:09:01.416Z,63.36
2018-10-18T00:10:08.402Z,63.41
2018-10-18T00:11:15.273Z,63.42
2018-10-18T00:12:22.126Z,63.48
2018-10-18T00:13:28.790Z,63.49
2018-10-18T00:14:37.070Z,63.51
2018-10-18T00:15:42.746Z,63.57
2018-10-18T00:16:50.008Z,63.59
2018-10-18T00:17:56.905Z,63.67
2018-10-18T00:19:03.550Z,63.76
2018-10-18T00:20:10.336Z,63.77
2018-10-18T00:21:17.073Z,63.78
2018-10-18T00:22:24.255Z,63.79
2018-10-18T00:23:30.910Z,63.86
2018-10-18T00:24:38.186Z,63.90
2018-10-18T00:25:44.836Z,63.89
2018-10-18T00:26:51.627Z,63.89
2018-10-18T00:27:58.160Z,63.88
2018-10-18T00:29:05.439Z,63.92
2018-10-18T00:30:12.105Z,63.94
2018-10-18T00:31:19.198Z,63.93
2018-10-18T00:32:26.356Z,63.95
2018-10-18T00:33:33.427Z,63.99
2018-10-18T00:34:40.675Z,64.01
2018-10-18T00:35:47.367Z,64.20
2018-10-18T00:36:54.054Z,64.32
2018-10-18T00:38:00.743Z,64.32
2018-10-18T00:39:07.466Z,64.37
2018-10-18T00:40:14.426Z,64.39
2018-10-18T00:41:21.710Z,64.40
2018-10-18T00:42:28.462Z,64.41
2018-10-18T00:43:35.809Z,64.44
2018-10-18T00:44:42.510Z,64.46
2018-10-18T00:45:49.195Z,64.47
2018-10-18T00:46:55.799Z,64.46
2018-10-18T00:48:02.914Z,64.46
2018-10-18T00:49:10.186Z,64.51
2018-10-18T00:50:17.012Z,64.50
2018-10-18T00:51:23.731Z,64.54
2018-10-18T00:52:30.382Z,64.57
2018-10-18T00:53:37.662Z,64.59
2018-10-18T00:54:44.226Z,64.62
2018-10-18T00:55:51.488Z,64.64
2018-10-18T00:56:58.182Z,64.63
2018-10-18T00:58:05.019Z,64.65
2018-10-18T00:59:11.683Z,64.67
2018-10-18T01:00:18.917Z,64.68
2018-10-18T01:01:25.649Z,64.79
2018-10-18T01:02:32.155Z,64.80
2018-10-18T01:03:39.354Z,64.81
2018-10-18T01:04:45.910Z,64.84
2018-10-18T01:05:53.239Z,64.90
2018-10-18T01:06:59.842Z,64.94
2018-10-18T01:08:07.190Z,64.93
2018-10-18T01:09:13.653Z,64.97
2018-10-18T01:10:20.975Z,64.98
2018-10-18T01:11:27.666Z,65.03
2018-10-18T01:12:34.947Z,65.08
2018-10-18T01:13:41.577Z,65.08
2018-10-18T01:14:48.234Z,65.11
2018-10-18T01:15:55.412Z,65.12
2018-10-18T01:17:02.095Z,65.16
2018-10-18T01:18:09.216Z,65.16
2018-10-18T01:19:15.794Z,65.21
2018-10-18T01:20:23.086Z,65.26
2018-10-18T01:21:29.782Z,65.25
2018-10-18T01:22:36.736Z,65.26
2018-10-18T01:23:43.431Z,65.25
2018-10-18T01:24:50.151Z,65.26
2018-10-18T01:25:56.841Z,65.30
2018-10-18T01:27:03.578Z,65.36
2018-10-18T01:28:10.143Z,65.37
2018-10-18T01:29:17.308Z,65.37
2018-10-18T01:30:24.485Z,65.40
2018-10-18T01:31:31.065Z,65.42
2018-10-18T01:32:38.351Z,65.43
2018-10-18T01:33:44.881Z,65.44
2018-10-18T01:34:52.260Z,65.49
2018-10-18T01:35:58.840Z,65.50
2018-10-18T01:37:06.221Z,65.51
2018-10-18T01:38:12.799Z,65.56
2018-10-18T01:39:20.143Z,65.55
2018-10-18T01:40:26.690Z,65.53
2018-10-18T01:41:33.976Z,65.56
2018-10-18T01:42:40.888Z,65.57
2018-10-18T01:43:47.608Z,65.62
2018-10-18T01:44:54.387Z,65.64
2018-10-18T01:46:01.030Z,65.65
2018-10-18T01:47:07.916Z,65.70
2018-10-18T01:48:14.544Z,65.74
2018-10-18T01:49:21.786Z,65.79
2018-10-18T01:50:28.610Z,65.76
2018-10-18T01:51:35.375Z,65.75
2018-10-18T01:52:42.045Z,65.76
2018-10-18T01:53:48.586Z,65.76
2018-10-18T01:54:55.808Z,65.75
2018-10-18T01:56:02.487Z,65.79
2018-10-18T01:57:09.759Z,65.83
2018-10-18T01:58:16.267Z,65.82
2018-10-18T01:59:23.550Z,65.85
2018-10-18T02:00:30.222Z,65.85
2018-10-18T02:01:37.370Z,65.83
2018-10-18T02:02:44.482Z,65.91
2018-10-18T02:03:51.730Z,65.91
2018-10-18T02:04:58.489Z,65.98
2018-10-18T02:06:05.793Z,65.99
2018-10-18T02:07:12.556Z,65.98
2018-10-18T02:08:19.711Z,66.00
2018-10-18T02:09:26.379Z,66.01
2018-10-18T02:10:33.554Z,66.02
2018-10-18T02:11:40.449Z,66.03
2018-10-18T02:12:47.002Z,66.09
2018-10-18T02:13:54.254Z,66.09
2018-10-18T02:15:00.930Z,66.09
2018-10-18T02:16:07.686Z,66.07
2018-10-18T02:17:14.462Z,66.08
2018-10-18T02:18:21.764Z,66.09
2018-10-18T02:19:28.492Z,66.10
2018-10-18T02:20:35.242Z,66.11
2018-10-18T02:21:41.807Z,66.13
2018-10-18T02:22:49.033Z,66.17
2018-10-18T02:23:55.642Z,66.15
2018-10-18T02:25:02.975Z,66.10
2018-10-18T02:26:09.688Z,66.10
2018-10-18T02:27:16.290Z,66.13
2018-10-18T02:28:23.502Z,66.14
2018-10-18T02:29:30.183Z,66.16
2018-10-18T02:30:36.973Z,66.19
2018-10-18T02:31:43.630Z,66.17
2018-10-18T02:32:50.866Z,66.20
2018-10-18T02:33:57.550Z,66.22
2018-10-18T02:35:04.727Z,66.23
2018-10-18T02:36:11.679Z,66.22
2018-10-18T02:37:18.881Z,66.26
2018-10-18T02:38:25.674Z,66.33
2018-10-18T02:39:32.303Z,66.39
2018-10-18T02:40:39.580Z,66.33
2018-10-18T02:41:46.150Z,66.29
2018-10-18T02:42:53.459Z,66.27
2018-10-18T02:44:00.084Z,66.28
2018-10-18T02:45:07.454Z,66.36
2018-10-18T02:46:14.024Z,66.39
2018-10-18T02:47:21.294Z,66.37
2018-10-18T02:48:27.890Z,66.36
2018-10-18T02:49:35.106Z,66.33
2018-10-18T02:50:41.690Z,66.35
2018-10-18T02:51:48.878Z,66.36
2018-10-18T02:52:55.668Z,66.31
2018-10-18T02:54:02.424Z,66.35
2018-10-18T02:55:09.280Z,66.38
2018-10-18T02:56:15.832Z,66.40
2018-10-18T02:57:23.340Z,66.40
2018-10-18T02:58:29.993Z,66.39
2018-10-18T02:59:37.258Z,66.41
2018-10-18T03:00:43.803Z,66.40
2018-10-18T03:01:51.085Z,66.36
2018-10-18T03:02:57.756Z,66.34
2018-10-18T03:04:05.048Z,66.38
2018-10-18T03:05:11.584Z,66.43
2018-10-18T03:06:18.814Z,66.42
2018-10-18T03:07:25.526Z,66.44
2018-10-18T03:08:32.201Z,66.44
2018-10-18T03:09:39.470Z,66.41
2018-10-18T03:10:46.230Z,66.35
2018-10-18T03:11:52.960Z,66.40
2018-10-18T03:12:59.560Z,66.43
2018-10-18T03:14:06.799Z,66.45
2018-10-18T03:15:13.528Z,66.46
2018-10-18T03:16:20.867Z,66.47
2018-10-18T03:17:27.551Z,66.47
2018-10-18T03:18:34.847Z,66.47
2018-10-18T03:19:41.466Z,66.46
2018-10-18T03:20:48.645Z,66.46
2018-10-18T03:21:55.563Z,66.46
2018-10-18T03:23:02.178Z,66.44
2018-10-18T03:24:09.550Z,66.46
2018-10-18T03:25:16.184Z,66.49
2018-10-18T03:26:22.882Z,66.53
2018-10-18T03:27:29.645Z,66.56
2018-10-18T03:28:36.451Z,66.60
2018-10-18T03:29:43.094Z,66.61
2018-10-18T03:30:50.306Z,66.61
2018-10-18T03:31:57.015Z,66.61
2018-10-18T03:33:03.693Z,66.56
2018-10-18T03:34:10.558Z,66.58
2018-10-18T03:35:17.312Z,66.58
2018-10-18T03:36:24.092Z,66.60
2018-10-18T03:37:30.771Z,66.61
2018-10-18T03:38:38.048Z,66.63
2018-10-18T03:39:44.778Z,66.64
2018-10-18T03:40:51.546Z,66.63
2018-10-18T03:41:58.245Z,66.64
2018-10-18T03:43:05.142Z,66.64
2018-10-18T03:44:11.756Z,66.67
2018-10-18T03:45:18.930Z,66.66
2018-10-18T03:46:25.614Z,66.67
2018-10-18T03:47:32.249Z,66.70
2018-10-18T03:48:39.555Z,66.69
2018-10-18T03:49:46.182Z,66.72
2018-10-18T03:50:53.462Z,66.74
2018-10-18T03:52:00.120Z,66.71
2018-10-18T03:53:07.278Z,66.68
2018-10-18T03:54:14.031Z,66.75
2018-10-18T03:55:21.236Z,66.73
2018-10-18T03:56:27.894Z,66.71
2018-10-18T03:57:34.666Z,66.68
2018-10-18T03:58:41.333Z,66.76
2018-10-18T03:59:48.424Z,66.76
2018-10-18T04:00:55.557Z,66.78
2018-10-18T04:02:02.132Z,66.75
2018-10-18T04:03:09.100Z,66.79
2018-10-18T04:04:16.203Z,66.77
2018-10-18T04:05:23.446Z,66.83
2018-10-18T04:06:30.015Z,66.80
2018-10-18T04:07:37.282Z,66.87
2018-10-18T04:08:44.058Z,66.91
2018-10-18T04:09:51.036Z,66.92
2018-10-18T04:10:57.640Z,66.89
2018-10-18T04:12:04.864Z,66.92
2018-10-18T04:13:11.527Z,66.96
2018-10-18T04:14:18.482Z,66.97
2018-10-18T04:15:25.672Z,67.00
2018-10-18T04:16:32.335Z,67.01
2018-10-18T04:17:39.550Z,66.94
2018-10-18T04:18:46.162Z,67.00
2018-10-18T04:19:53.469Z,67.06
2018-10-18T04:21:00.098Z,67.06
2018-10-18T04:22:07.291Z,67.05
2018-10-18T04:23:14.319Z,66.99
2018-10-18T04:24:21.769Z,67.12
2018-10-18T04:25:28.505Z,67.22
2018-10-18T04:26:35.258Z,67.27
2018-10-18T04:27:41.926Z,67.33
2018-10-18T04:28:48.795Z,67.35
2018-10-18T04:29:55.402Z,67.34
2018-10-18T04:31:02.454Z,67.32
2018-10-18T04:32:09.590Z,67.42
2018-10-18T04:33:16.175Z,67.54
2018-10-18T04:34:23.091Z,67.60
2018-10-18T04:35:29.615Z,67.73
2018-10-18T04:36:36.849Z,67.80
2018-10-18T04:37:43.751Z,67.94
2018-10-18T04:38:50.482Z,67.98
2018-10-18T04:39:57.006Z,67.93
2018-10-18T04:41:04.243Z,67.90
2018-10-18T04:42:10.918Z,67.84
2018-10-18T04:43:17.566Z,67.81
2018-10-18T04:44:24.846Z,67.82
2018-10-18T04:45:31.462Z,67.86
2018-10-18T04:46:38.760Z,67.96
2018-10-18T04:47:45.637Z,68.00
2018-10-18T04:48:52.355Z,68.03
2018-10-18T04:49:58.996Z,68.08
2018-10-18T04:51:05.722Z,68.06
2018-10-18T04:52:12.378Z,68.04
2018-10-18T04:53:19.666Z,68.01
2018-10-18T04:54:26.332Z,68.05
2018-10-18T04:55:33.514Z,68.12
2018-10-18T04:56:40.435Z,68.20
2018-10-18T04:57:47.167Z,68.22
2018-10-18T04:58:54.377Z,68.24
2018-10-18T05:00:01.090Z,68.22
2018-10-18T05:01:08.364Z,68.28
2018-10-18T05:02:14.937Z,68.28
2018-10-18T05:03:21.782Z,68.31
2018-10-18T05:04:28.493Z,68.35
2018-10-18T05:05:35.836Z,68.34
2018-10-18T05:06:42.602Z,68.38
2018-10-18T05:07:49.870Z,68.36
2018-10-18T05:08:56.626Z,68.34
2018-10-18T05:10:03.312Z,68.26
2018-10-18T05:11:10.294Z,68.29
2018-10-18T05:12:16.920Z,68.38
2018-10-18T05:13:24.207Z,68.54
2018-10-18T05:14:30.854Z,68.60
2018-10-18T05:15:38.168Z,68.70
2018-10-18T05:16:45.106Z,68.82
2018-10-18T05:17:51.878Z,68.90
2018-10-18T05:18:58.683Z,68.97
2018-10-18T05:20:05.450Z,69.02
2018-10-18T05:21:12.160Z,69.13
2018-10-18T05:22:19.155Z,69.21
2018-10-18T05:23:26.321Z,69.27
2018-10-18T05:24:33.041Z,69.37
2018-10-18T05:25:40.273Z,69.46
2018-10-18T05:26:46.718Z,69.61
2018-10-18T05:27:53.494Z,69.68
2018-10-18T05:29:00.142Z,69.83
2018-10-18T05:30:07.441Z,69.96
2018-10-18T05:31:14.536Z,70.08
2018-10-18T05:32:21.764Z,70.21
2018-10-18T05:33:28.430Z,70.21
2018-10-18T05:34:35.707Z,70.28
2018-10-18T05:35:42.393Z,70.35
2018-10-18T05:36:49.442Z,70.42
2018-10-18T05:37:56.098Z,70.61
2018-10-18T05:39:03.283Z,70.75
2018-10-18T05:40:10.266Z,70.88
2018-10-18T05:41:16.965Z,71.03
2018-10-18T05:42:23.778Z,71.15
2018-10-18T05:43:30.446Z,71.18
2018-10-18T05:44:37.276Z,71.13
2018-10-18T05:45:44.191Z,71.26
2018-10-18T05:46:51.132Z,71.48
2018-10-18T05:47:57.609Z,71.61
2018-10-18T05:49:04.883Z,71.70
2018-10-18T05:50:11.561Z,71.83
2018-10-18T05:51:18.224Z,71.94
2018-10-18T05:52:25.443Z,71.96
2018-10-18T05:53:32.265Z,72.05
2018-10-18T05:54:38.919Z,72.11
2018-10-18T05:55:45.698Z,72.20
2018-10-18T05:56:52.547Z,72.31
2018-10-18T05:57:59.216Z,72.41
2018-10-18T05:59:06.502Z,72.49
2018-10-18T06:00:13.305Z,72.55
2018-10-18T06:01:20.023Z,72.48
2018-10-18T06:02:26.678Z,72.50
2018-10-18T06:03:33.857Z,72.54
2018-10-18T06:04:40.711Z,72.63
2018-10-18T06:05:47.436Z,72.70
2018-10-18T06:06:54.192Z,72.80
2018-10-18T06:08:00.729Z,72.91
2018-10-18T06:09:08.002Z,73.02
2018-10-18T06:10:14.734Z,73.15
2018-10-18T06:11:21.628Z,73.28
2018-10-18T06:12:28.454Z,73.35
2018-10-18T06:13:35.759Z,73.35
2018-10-18T06:14:42.531Z,73.36
2018-10-18T06:15:49.099Z,73.36
2018-10-18T06:16:56.406Z,73.48
2018-10-18T06:18:03.328Z,73.48
2018-10-18T06:19:10.421Z,73.63
2018-10-18T06:20:17.184Z,73.69
2018-10-18T06:21:24.127Z,73.71
2018-10-18T06:22:30.798Z,73.67
2018-10-18T06:23:37.738Z,73.80
2018-10-18T06:24:44.342Z,73.81
2018-10-18T06:25:51.662Z,73.83
2018-10-18T06:26:58.510Z,74.00
2018-10-18T06:28:05.782Z,74.06
2018-10-18T06:29:12.419Z,74.13
2018-10-18T06:30:19.675Z,74.14
2018-10-18T06:31:26.381Z,74.20
2018-10-18T06:32:33.011Z,74.24
2018-10-18T06:33:40.366Z,74.26
2018-10-18T06:34:47.055Z,74.33
2018-10-18T06:35:53.855Z,74.36
2018-10-18T06:37:00.503Z,74.26
2018-10-18T06:38:07.658Z,74.34
2018-10-18T06:39:14.357Z,74.38
2018-10-18T06:40:21.199Z,74.40
2018-10-18T06:41:27.976Z,74.29
2018-10-18T06:42:34.859Z,74.26
2018-10-18T06:43:41.378Z,74.20
2018-10-18T06:44:48.660Z,74.26
2018-10-18T06:45:55.728Z,74.40
2018-10-18T06:47:02.420Z,74.54
2018-10-18T06:48:09.202Z,74.61
2018-10-18T06:49:16.056Z,74.63
2018-10-18T06:50:22.699Z,74.68
2018-10-18T06:51:29.468Z,74.78
2018-10-18T06:52:36.321Z,74.83
2018-10-18T06:53:43.294Z,74.93
2018-10-18T06:54:50.166Z,74.99
2018-10-18T06:55:56.822Z,75.02
2018-10-18T06:57:03.514Z,75.04
2018-10-18T06:58:10.556Z,75.11
2018-10-18T06:59:17.119Z,75.16
2018-10-18T07:00:24.377Z,75.24
2018-10-18T07:01:30.918Z,75.32
2018-10-18T07:02:38.244Z,75.48
2018-10-18T07:03:44.989Z,75.62
2018-10-18T07:04:51.858Z,75.72
2018-10-18T07:05:58.499Z,75.83
2018-10-18T07:07:05.729Z,75.96
2018-10-18T07:08:12.466Z,76.04
2018-10-18T07:09:19.256Z,76.19
2018-10-18T07:10:26.023Z,76.26
2018-10-18T07:11:32.779Z,76.31
2018-10-18T07:12:39.542Z,76.41
2018-10-18T07:13:46.494Z,76.50
2018-10-18T07:14:53.789Z,76.62
2018-10-18T07:16:00.488Z,76.73
2018-10-18T07:17:07.412Z,76.81
2018-10-18T07:18:14.234Z,76.91
2018-10-18T07:19:21.094Z,77.01
2018-10-18T07:20:28.024Z,77.04
2018-10-18T07:21:34.799Z,77.08
2018-10-18T07:22:41.533Z,77.16
2018-10-18T07:23:48.412Z,77.25
2018-10-18T07:24:55.473Z,77.38
2018-10-18T07:26:02.242Z,77.48
2018-10-18T07:27:09.127Z,77.61
2018-10-18T07:28:15.866Z,77.74
2018-10-18T07:29:22.634Z,77.88
2018-10-18T07:30:29.298Z,77.98
2018-10-18T07:31:36.147Z,78.14
2018-10-18T07:32:42.964Z,78.26
2018-10-18T07:33:49.703Z,78.41
2018-10-18T07:34:56.415Z,78.54
2018-10-18T07:36:03.663Z,78.63
2018-10-18T07:37:10.315Z,78.73
2018-10-18T07:38:16.959Z,78.79
2018-10-18T07:39:23.742Z,78.92
2018-10-18T07:40:30.495Z,79.02
2018-10-18T07:41:37.367Z,79.15
2018-10-18T07:42:44.008Z,79.26
2018-10-18T07:43:51.313Z,79.38
2018-10-18T07:44:57.965Z,79.50
2018-10-18T07:46:05.040Z,79.62
2018-10-18T07:47:11.723Z,79.76
2018-10-18T07:48:18.472Z,79.87
2018-10-18T07:49:25.158Z,79.97
2018-10-18T07:50:31.891Z,80.02
2018-10-18T07:51:38.667Z,80.13
2018-10-18T07:52:45.270Z,80.26
2018-10-18T07:53:52.536Z,80.38
2018-10-18T07:54:59.365Z,80.51
2018-10-18T07:56:06.438Z,80.66
2018-10-18T07:57:13.207Z,80.83
2018-10-18T07:58:20.441Z,80.97
2018-10-18T07:59:27.163Z,81.14
2018-10-18T08:00:34.023Z,81.31
2018-10-18T08:01:40.779Z,81.46
2018-10-18T08:02:47.556Z,81.60
2018-10-18T08:03:54.313Z,81.74
2018-10-18T08:05:01.071Z,81.88
2018-10-18T08:06:08.141Z,82.00
2018-10-18T08:07:14.843Z,82.16
2018-10-18T08:08:21.661Z,82.30
2018-10-18T08:09:28.190Z,82.41
2018-10-18T08:10:35.540Z,82.51
2018-10-18T08:11:42.158Z,82.63
2018-10-18T08:12:49.359Z,82.78
2018-10-18T08:13:56.041Z,82.94
2018-10-18T08:15:02.873Z,83.12
2018-10-18T08:16:09.795Z,83.26
2018-10-18T08:17:16.558Z,83.38
2018-10-18T08:18:23.274Z,83.50
2018-10-18T08:19:30.044Z,83.60
2018-10-18T08:20:36.902Z,83.73
2018-10-18T08:21:43.553Z,83.89
2018-10-18T08:22:50.803Z,84.00
2018-10-18T08:23:57.405Z,84.14
2018-10-18T08:25:04.706Z,84.34
2018-10-18T08:26:11.371Z,84.47
2018-10-18T08:27:19.015Z,84.60
2018-10-18T08:28:25.542Z,84.73
2018-10-18T08:29:32.425Z,84.85
2018-10-18T08:30:39.428Z,84.96
2018-10-18T08:31:46.247Z,85.07
2018-10-18T08:32:53.178Z,85.19
2018-10-18T08:34:00.034Z,85.33
2018-10-18T08:35:06.903Z,85.47
2018-10-18T08:36:13.763Z,85.57
2018-10-18T08:37:21.150Z,85.71
2018-10-18T08:38:27.732Z,85.83
2018-10-18T08:39:34.978Z,85.93
2018-10-18T08:40:41.637Z,86.08
2018-10-18T08:41:48.518Z,86.18
2018-10-18T08:42:55.319Z,86.29
2018-10-18T08:44:02.003Z,86.44
2018-10-18T08:45:09.150Z,86.57
2018-10-18T08:46:15.974Z,86.70
2018-10-18T08:47:22.726Z,86.82
2018-10-18T08:48:29.538Z,86.93
2018-10-18T08:49:36.428Z,87.07
2018-10-18T08:50:43.230Z,87.17
2018-10-18T08:51:50.360Z,87.32
2018-10-18T08:52:56.883Z,87.45
2018-10-18T08:54:03.920Z,87.58
2018-10-18T08:55:10.795Z,87.70
2018-10-18T08:56:17.699Z,87.83
2018-10-18T08:57:24.663Z,87.97
2018-10-18T08:58:31.430Z,88.07
2018-10-18T08:59:38.287Z,88.18
2018-10-18T09:00:45.060Z,88.28
2018-10-18T09:01:51.804Z,88.41
2018-10-18T09:02:58.479Z,88.53
2018-10-18T09:04:05.749Z,88.62
2018-10-18T09:05:12.383Z,88.73
2018-10-18T09:06:19.598Z,88.83
2018-10-18T09:07:26.262Z,88.93
2018-10-18T09:08:32.945Z,89.06
2018-10-18T09:09:40.203Z,89.16
2018-10-18T09:10:46.960Z,89.29
2018-10-18T09:11:54.222Z,89.37
2018-10-18T09:13:01.019Z,89.46
2018-10-18T09:14:07.981Z,89.57
2018-10-18T09:15:14.636Z,89.66
2018-10-18T09:16:21.395Z,89.78
2018-10-18T09:17:28.837Z,89.90
2018-10-18T09:18:35.223Z,90.00
2018-10-18T09:19:42.190Z,90.13
2018-10-18T09:20:49.396Z,90.25
2018-10-18T09:21:56.033Z,90.36
2018-10-18T09:23:03.038Z,90.47
2018-10-18T09:24:09.746Z,90.57
2018-10-18T09:25:16.603Z,90.69
2018-10-18T09:26:23.324Z,90.81
2018-10-18T09:27:30.067Z,90.92
2018-10-18T09:28:36.947Z,91.02
2018-10-18T09:29:43.610Z,91.12
2018-10-18T09:30:50.361Z,91.24
2018-10-18T09:31:57.131Z,91.33
2018-10-18T09:33:03.814Z,91.45
2018-10-18T09:34:11.099Z,91.55
2018-10-18T09:35:17.826Z,91.67
2018-10-18T09:36:24.721Z,91.78
2018-10-18T09:37:31.375Z,91.90
2018-10-18T09:38:38.650Z,92.01
2018-10-18T09:39:45.302Z,92.12
2018-10-18T09:40:52.533Z,92.22
2018-10-18T09:41:59.351Z,92.32
2018-10-18T09:43:06.213Z,92.44
2018-10-18T09:44:12.954Z,92.52
2018-10-18T09:45:19.668Z,92.64
2018-10-18T09:46:26.427Z,92.72
2018-10-18T09:47:33.482Z,92.83
2018-10-18T09:48:40.368Z,92.94
2018-10-18T09:49:47.034Z,93.04
2018-10-18T09:50:54.210Z,93.15
2018-10-18T09:52:00.743Z,93.28
2018-10-18T09:53:08.003Z,93.40
2018-10-18T09:54:14.675Z,93.60
2018-10-18T09:55:22.094Z,93.73
2018-10-18T09:56:28.632Z,93.89
2018-10-18T09:57:35.485Z,94.03
2018-10-18T09:58:42.379Z,94.08
2018-10-18T09:59:49.049Z,94.15
2018-10-18T10:00:55.685Z,94.23
2018-10-18T10:02:02.750Z,94.27
2018-10-18T10:03:09.738Z,94.33
2018-10-18T10:04:16.633Z,94.34
2018-10-18T10:05:23.568Z,94.41
2018-10-18T10:06:30.202Z,94.46
2018-10-18T10:07:37.506Z,94.50
2018-10-18T10:08:44.163Z,94.53
2018-10-18T10:09:51.420Z,94.59
2018-10-18T10:10:58.000Z,94.63
2018-10-18T10:12:05.279Z,94.68
2018-10-18T10:13:12.118Z,94.72
2018-10-18T10:14:18.743Z,94.76
2018-10-18T10:15:25.874Z,94.79
2018-10-18T10:16:33.033Z,94.84
2018-10-18T10:17:40.241Z,94.86
2018-10-18T10:18:47.152Z,94.89
2018-10-18T10:19:54.096Z,94.92
2018-10-18T10:21:00.731Z,94.95
2018-10-18T10:22:07.597Z,94.93
2018-10-18T10:23:14.323Z,94.93
2018-10-18T10:24:21.774Z,94.93
2018-10-18T10:25:28.196Z,94.95
2018-10-18T10:26:35.508Z,95.04
2018-10-18T10:27:42.445Z,95.13
2018-10-18T10:28:49.108Z,95.20
2018-10-18T10:29:56.242Z,95.28
2018-10-18T10:31:03.434Z,95.31
2018-10-18T10:32:10.143Z,95.33
2018-10-18T10:33:16.830Z,95.35
2018-10-18T10:34:24.079Z,95.37
2018-10-18T10:35:30.762Z,95.34
2018-10-18T10:36:38.110Z,95.31
2018-10-18T10:37:44.870Z,95.16
2018-10-18T10:38:51.667Z,95.02
2018-10-18T10:39:58.337Z,94.87
2018-10-18T10:41:05.653Z,94.74
2018-10-18T10:42:12.642Z,94.55
2018-10-18T10:43:19.311Z,94.36
2018-10-18T10:44:26.107Z,94.14
2018-10-18T10:45:32.890Z,94.00
2018-10-18T10:46:39.594Z,93.86
2018-10-18T10:47:46.365Z,93.74
2018-10-18T10:48:53.483Z,93.62
2018-10-18T10:50:00.122Z,93.50
2018-10-18T10:51:07.442Z,93.35
2018-10-18T10:52:14.259Z,93.25
2018-10-18T10:53:20.919Z,93.19
2018-10-18T10:54:27.570Z,92.99
2018-10-18T10:55:34.863Z,92.82
2018-10-18T10:56:41.434Z,92.64
2018-10-18T10:57:48.595Z,92.45
2018-10-18T10:58:55.586Z,92.28
2018-10-18T11:00:02.161Z,92.11
2018-10-18T11:01:08.986Z,91.90
2018-10-18T11:02:16.004Z,91.70
2018-10-18T11:03:23.138Z,91.46
2018-10-18T11:04:29.922Z,91.26
2018-10-18T11:05:36.895Z,91.13
2018-10-18T11:06:43.537Z,91.04
2018-10-18T11:07:50.802Z,90.88
2018-10-18T11:08:57.521Z,90.73
2018-10-18T11:10:04.149Z,90.54
2018-10-18T11:11:11.391Z,90.38
2018-10-18T11:12:18.388Z,90.20
2018-10-18T11:13:25.796Z,90.02
2018-10-18T11:14:32.764Z,89.82
2018-10-18T11:15:39.611Z,89.70
2018-10-18T11:16:46.254Z,89.47
2018-10-18T11:17:53.070Z,89.26
2018-10-18T11:18:59.788Z,89.03
2018-10-18T11:20:06.735Z,88.84
2018-10-18T11:21:13.486Z,88.69
2018-10-18T11:22:20.600Z,88.47
2018-10-18T11:23:27.317Z,88.31
2018-10-18T11:24:34.585Z,88.19
2018-10-18T11:25:41.330Z,87.98
2018-10-18T11:26:47.907Z,87.79
2018-10-18T11:27:55.343Z,87.63
2018-10-18T11:29:02.125Z,87.46
2018-10-18T11:30:08.957Z,87.23
2018-10-18T11:31:15.551Z,87.06
2018-10-18T11:32:22.814Z,86.89
2018-10-18T11:33:29.474Z,86.70
2018-10-18T11:34:36.334Z,86.45
2018-10-18T11:35:42.914Z,86.27
2018-10-18T11:36:50.183Z,86.03
2018-10-18T11:37:56.973Z,85.82
2018-10-18T11:39:03.707Z,85.59
2018-10-18T11:40:10.790Z,85.50
2018-10-18T11:41:17.974Z,85.33
2018-10-18T11:42:24.741Z,85.12
2018-10-18T11:43:31.482Z,84.91
2018-10-18T11:44:38.258Z,84.69
2018-10-18T11:45:44.975Z,84.46
2018-10-18T11:46:51.891Z,84.23
2018-10-18T11:47:58.704Z,84.03
2018-10-18T11:49:05.524Z,83.84
2018-10-18T11:50:12.335Z,83.67
2018-10-18T11:51:19.247Z,83.52
2018-10-18T11:52:26.124Z,83.31
2018-10-18T11:53:32.982Z,83.12
2018-10-18T11:54:40.216Z,82.82
2018-10-18T11:55:47.389Z,82.59
2018-10-18T11:56:54.210Z,82.40
2018-10-18T11:58:01.055Z,82.28
2018-10-18T11:59:08.036Z,82.10
2018-10-18T12:00:14.819Z,81.84
2018-10-18T12:01:22.118Z,81.71
2018-10-18T12:02:29.089Z,81.58
2018-10-18T12:03:35.992Z,81.43
2018-10-18T12:04:42.727Z,81.25
2018-10-18T12:05:49.549Z,81.05
2018-10-18T12:06:56.327Z,80.89
2018-10-18T12:08:03.013Z,80.67
2018-10-18T12:09:09.735Z,80.50
2018-10-18T12:10:16.614Z,80.34
2018-10-18T12:11:23.395Z,80.23
2018-10-18T12:12:30.125Z,80.17
2018-10-18T12:13:36.870Z,79.98
2018-10-18T12:14:43.659Z,79.76
2018-10-18T12:15:50.435Z,79.68
2018-10-18T12:16:57.279Z,79.50
2018-10-18T12:18:04.059Z,79.30
2018-10-18T12:19:10.788Z,79.11
2018-10-18T12:20:17.687Z,78.99
2018-10-18T12:21:24.442Z,78.73
2018-10-18T12:22:31.230Z,78.57
2018-10-18T12:23:38.102Z,78.43
2018-10-18T12:24:44.892Z,78.26
2018-10-18T12:25:51.678Z,78.13
2018-10-18T12:26:58.557Z,77.99
2018-10-18T12:28:05.295Z,77.84
2018-10-18T12:29:12.471Z,77.69
2018-10-18T12:30:19.094Z,77.49
2018-10-18T12:31:25.656Z,77.28
2018-10-18T12:32:32.862Z,77.17
2018-10-18T12:33:39.594Z,77.00
2018-10-18T12:34:46.278Z,76.72
2018-10-18T12:35:53.133Z,76.55
2018-10-18T12:36:59.802Z,76.36
2018-10-18T12:38:07.226Z,76.20
2018-10-18T12:39:13.967Z,76.03
2018-10-18T12:40:20.985Z,75.92
2018-10-18T12:41:27.618Z,75.76
2018-10-18T12:42:34.253Z,75.60
2018-10-18T12:43:41.194Z,75.36
2018-10-18T12:44:47.850Z,75.22
2018-10-18T12:45:55.049Z,75.07
2018-10-18T12:47:01.722Z,74.93
2018-10-18T12:48:09.063Z,74.77
2018-10-18T12:49:15.950Z,74.64
2018-10-18T12:50:22.703Z,74.57
2018-10-18T12:51:29.378Z,74.37
2018-10-18T12:52:36.475Z,74.21
2018-10-18T12:53:43.319Z,74.05
2018-10-18T12:54:50.165Z,73.91
2018-10-18T12:55:56.971Z,73.74
2018-10-18T12:57:03.724Z,73.57
2018-10-18T12:58:10.907Z,73.52
2018-10-18T12:59:17.590Z,73.40
2018-10-18T13:00:24.821Z,73.26
2018-10-18T13:01:31.606Z,73.19
2018-10-18T13:02:38.584Z,72.98
2018-10-18T13:03:45.227Z,72.80
2018-10-18T13:04:51.972Z,72.73
2018-10-18T13:05:58.801Z,72.58
2018-10-18T13:07:05.738Z,72.48
2018-10-18T13:08:12.452Z,72.36
2018-10-18T13:09:19.140Z,72.19
2018-10-18T13:10:25.916Z,72.03
2018-10-18T13:11:32.481Z,71.92
2018-10-18T13:12:39.843Z,71.71
2018-10-18T13:13:46.826Z,71.63
2018-10-18T13:14:53.570Z,71.59
2018-10-18T13:16:00.460Z,71.49
2018-10-18T13:17:07.435Z,71.39
2018-10-18T13:18:14.147Z,71.25
2018-10-18T13:19:21.347Z,71.17
2018-10-18T13:20:28.154Z,71.20
2018-10-18T13:21:34.927Z,71.14
2018-10-18T13:22:41.687Z,71.04
2018-10-18T13:23:48.351Z,70.87
2018-10-18T13:24:55.562Z,70.72
2018-10-18T13:26:02.369Z,70.55
2018-10-18T13:27:08.975Z,70.35
2018-10-18T13:28:15.722Z,70.21
2018-10-18T13:29:23.077Z,70.06
2018-10-18T13:30:29.794Z,69.98
2018-10-18T13:31:36.552Z,69.82
2018-10-18T13:32:43.290Z,69.66
2018-10-18T13:33:50.182Z,69.53
2018-10-18T13:34:56.800Z,69.43
2018-10-18T13:36:03.705Z,69.28
2018-10-18T13:37:10.322Z,69.16
2018-10-18T13:38:17.669Z,69.07
2018-10-18T13:39:24.370Z,68.91
2018-10-18T13:40:31.205Z,68.86
2018-10-18T13:41:38.099Z,68.75
2018-10-18T13:42:44.876Z,68.69
2018-10-18T13:43:52.175Z,68.60
2018-10-18T13:44:58.874Z,68.50
2018-10-18T13:46:05.800Z,68.38
2018-10-18T13:47:12.451Z,68.32
2018-10-18T13:48:19.742Z,68.21
2018-10-18T13:49:26.467Z,68.12
2018-10-18T13:50:33.134Z,67.98
2018-10-18T13:51:40.422Z,67.87
2018-10-18T13:52:47.066Z,67.73
2018-10-18T13:53:54.390Z,67.68
2018-10-18T13:55:01.114Z,67.58
2018-10-18T13:56:08.124Z,67.46
2018-10-18T13:57:14.870Z,67.40
2018-10-18T13:58:21.739Z,67.31
2018-10-18T13:59:28.525Z,67.24
2018-10-18T14:00:35.566Z,67.19
2018-10-18T14:01:42.313Z,67.11
2018-10-18T14:02:49.007Z,67.02
2018-10-18T14:03:55.775Z,66.98
2018-10-18T14:05:03.060Z,66.91
2018-10-18T14:06:10.006Z,66.87
2018-10-18T14:07:16.747Z,66.76
2018-10-18T14:08:23.641Z,66.69
2018-10-18T14:09:30.319Z,66.63
2018-10-18T14:10:37.185Z,66.62
2018-10-18T14:11:43.940Z,66.65
2018-10-18T14:12:50.802Z,66.60
2018-10-18T14:13:57.839Z,66.51
2018-10-18T14:15:04.746Z,66.48
2018-10-18T14:16:11.421Z,66.45
2018-10-18T14:17:18.685Z,66.42
2018-10-18T14:18:25.668Z,66.40
2018-10-18T14:19:32.411Z,66.40
2018-10-18T14:20:39.115Z,66.41